Time;durP1;ratioP1;P1;durP2;ratioP2;P2;SDS_P1;SDS_P2;PMS_P1;PMS_P2;Temp;Humidity;BMP_temperature;BMP_pressure;BME280_temperature;BME280_humidity;BME280_pressure;Samples;Min_cycle;Max_cycle;Signal;HPM_P1;HPM_P2
2022/12/30 00:00:39;;;;;;;50.60;19.15;;;;;;;2.76;63.37;99337.06;4773151;30;20058;-94
2022/12/30 00:03:07;;;;;;;49.30;19.48;;;;;;;2.58;63.42;99314.00;4758368;30;20059;-95
2022/12/30 00:05:39;;;;;;;48.15;18.02;;;;;;;2.58;62.99;99314.00;4772969;30;20059;-94
2022/12/30 00:09:28;;;;;;;49.00;19.00;;;;;;;3.28;63.27;99401.06;4788228;30;20071;-94
2022/12/30 00:34:49;;;;;;;48.72;17.73;;;;;;;3.26;62.82;99360.81;4669211;30;20053;-95
2022/12/30 00:37:25;;;;;;;41.60;17.20;;;;;;;3.25;62.74;99342.16;4682476;30;20042;-95
2022/12/30 00:40:06;;;;;;;46.35;19.00;;;;;;;2.86;62.62;99282.31;4689924;30;20042;-96
2022/12/30 00:46:09;;;;;;;51.58;20.52;;;;;;;2.90;62.71;99292.31;4687659;30;20053;-96
2022/12/30 00:58:49;;;;;;;55.95;23.77;;;;;;;3.25;63.07;99342.97;4723464;30;20106;-95
2022/12/30 01:01:41;;;;;;;55.67;22.63;;;;;;;3.24;63.07;99348.63;4718414;30;20061;-95
2022/12/30 01:04:49;;;;;;;57.40;22.85;;;;;;;2.69;63.31;99272.50;4728829;30;20041;-95
2022/12/30 01:07:48;;;;;;;53.97;20.02;;;;;;;3.06;63.73;99342.63;4749956;29;20089;-96
2022/12/30 01:10:47;;;;;;;47.45;20.58;;;;;;;2.57;63.81;99271.91;4775153;29;20039;-95
2022/12/30 01:13:20;;;;;;;51.75;21.17;;;;;;;2.47;63.83;99252.94;4788700;30;20051;-95
2022/12/30 01:15:59;;;;;;;57.03;21.30;;;;;;;3.01;64.10;99345.31;4774281;30;20059;-96
2022/12/30 01:18:37;;;;;;;48.33;20.08;;;;;;;2.79;63.66;99286.06;4789616;29;20494;-96
2022/12/30 01:21:20;;;;;;;54.30;21.50;;;;;;;2.79;63.26;99258.25;4783461;29;20082;-95
2022/12/30 01:23:51;;;;;;;54.00;20.52;;;;;;;2.82;63.21;99271.22;4789981;29;20048;-94
2022/12/30 01:27:13;;;;;;;57.45;21.13;;;;;;;3.48;63.33;99373.34;4769061;29;20052;-95
2022/12/30 01:30:07;;;;;;;53.97;20.73;;;;;;;2.87;63.20;99271.22;4735262;30;20064;-95
2022/12/30 01:33:05;;;;;;;54.88;21.52;;;;;;;3.38;63.03;99338.13;4734318;30;20029;-96
2022/12/30 01:35:44;;;;;;;56.30;21.65;;;;;;;3.16;62.90;99297.81;4764574;30;20093;-95
2022/12/30 01:38:24;;;;;;;57.30;21.90;;;;;;;3.68;62.71;99373.41;4733846;30;20494;-95
2022/12/30 01:41:05;;;;;;;54.35;21.08;;;;;;;3.04;62.94;99279.94;4738383;30;20122;-95
2022/12/30 01:43:50;;;;;;;56.25;22.30;;;;;;;3.11;63.21;99289.69;4751106;30;20072;-95
2022/12/30 01:46:33;;;;;;;61.70;22.90;;;;;;;3.48;63.42;99347.13;4748093;30;20052;-96
2022/12/30 01:49:07;;;;;;;58.58;22.95;;;;;;;3.03;63.21;99272.91;4734622;30;20541;-95
2022/12/30 01:51:37;;;;;;;62.65;22.27;;;;;;;3.28;62.88;99306.53;4744834;30;20067;-95
2022/12/30 01:54:12;;;;;;;57.75;22.63;;;;;;;3.40;63.03;99315.19;4750540;30;20056;-96
2022/12/30 01:56:46;;;;;;;56.58;22.05;;;;;;;3.47;62.97;99323.03;4724413;30;20045;-95
2022/12/30 01:59:39;;;;;;;58.20;22.70;;;;;;;3.04;62.84;99265.63;4764094;29;20041;-95
2022/12/30 02:02:17;;;;;;;54.25;21.08;;;;;;;2.92;62.83;99228.06;4735256;30;20057;-96
2022/12/30 02:04:54;;;;;;;53.45;20.25;;;;;;;3.04;62.76;99241.31;4749837;30;20064;-96
2022/12/30 02:08:21;;;;;;;57.05;20.73;;;;;;;2.99;62.97;99239.44;4737535;30;20100;-95
2022/12/30 02:11:18;;;;;;;52.00;21.45;;;;;;;3.50;62.94;99314.41;4756432;30;20047;-96
2022/12/30 02:14:16;;;;;;;59.15;21.92;;;;;;;3.34;62.90;99300.03;4744819;30;20127;-96
2022/12/30 02:21:17;;;;;;;60.97;23.48;;;;;;;3.25;63.03;99269.22;4784474;29;20047;-95
2022/12/30 02:24:24;;;;;;;67.63;23.60;;;;;;;3.76;62.95;99331.50;4776675;29;20585;-95
2022/12/30 02:27:35;;;;;;;82.95;27.40;;;;;;;3.28;62.78;99280.31;4797182;29;20145;-94
2022/12/30 02:30:32;;;;;;;84.60;28.13;;;;;;;3.47;62.98;99315.75;4792923;30;20089;-94
2022/12/30 02:33:56;;;;;;;92.40;31.63;;;;;;;3.19;62.79;99244.09;4763494;30;20035;-96
2022/12/30 02:37:22;;;;;;;86.60;31.37;;;;;;;3.65;62.96;99329.88;4789985;30;20051;-96
2022/12/30 02:40:28;;;;;;;84.30;29.88;;;;;;;3.12;63.43;99248.13;4769986;30;20063;-94
2022/12/30 02:46:25;;;;;;;87.97;27.10;;;;;;;3.36;63.41;99284.38;4740890;30;20048;-95
2022/12/30 02:49:02;;;;;;;73.35;26.05;;;;;;;3.70;62.88;99330.66;4770622;30;20533;-95
2022/12/30 02:54:26;;;;;;;72.60;24.35;;;;;;;3.09;63.29;99232.44;4771836;30;20059;-96
2022/12/30 02:56:56;;;;;;;68.00;24.70;;;;;;;3.64;63.20;99310.13;4784231;29;20055;-95
2022/12/30 03:06:30;;;;;;;66.90;24.27;;;;;;;3.82;63.29;99337.75;4791146;29;20050;-96
2022/12/30 03:12:51;;;;;;;82.85;26.63;;;;;;;3.10;64.59;99266.47;4771289;30;20047;-96
2022/12/30 03:15:38;;;;;;;77.22;26.10;;;;;;;2.89;64.38;99214.28;4772239;29;20020;-96
2022/12/30 03:18:18;;;;;;;70.85;24.45;;;;;;;3.13;64.63;99258.66;4772231;30;20450;-95
2022/12/30 03:20:47;;;;;;;80.10;25.83;;;;;;;3.02;63.93;99216.50;4784798;29;20039;-95
2022/12/30 03:27:26;;;;;;;69.70;24.25;;;;;;;3.23;63.55;99231.66;4789084;30;20074;-95
2022/12/30 03:30:21;;;;;;;70.95;23.80;;;;;;;3.43;63.64;99270.63;4793161;29;20099;-96
2022/12/30 03:32:50;;;;;;;70.65;24.35;;;;;;;2.96;63.65;99202.16;4775423;29;20112;-96
2022/12/30 03:35:49;;;;;;;64.65;23.45;;;;;;;3.06;64.21;99234.59;4798327;29;20062;-95
2022/12/30 03:38:30;;;;;;;71.60;24.55;;;;;;;2.98;63.79;99200.00;4811731;29;20031;-95
2022/12/30 03:41:00;;;;;;;71.90;25.02;;;;;;;3.30;63.90;99250.31;4806660;29;20054;-94
2022/12/30 03:44:30;;;;;;;67.60;25.77;;;;;;;3.20;63.91;99234.09;4817515;29;20065;-95
2022/12/30 03:50:50;;;;;;;79.65;27.83;;;;;;;3.08;64.21;99211.91;4747682;30;20091;-95
2022/12/30 03:54:50;;;;;;;76.20;27.02;;;;;;;3.28;64.26;99253.28;4773038;30;20064;-93
2022/12/30 03:57:28;;;;;;;81.97;27.92;;;;;;;3.72;63.66;99287.16;4677218;30;20066;-95
2022/12/30 04:00:01;;;;;;;84.07;27.52;;;;;;;3.32;63.27;99214.94;4697659;30;20050;-95
2022/12/30 04:02:30;;;;;;;71.82;26.25;;;;;;;3.09;64.24;99213.53;4669798;30;20086;-95
2022/12/30 04:04:58;;;;;;;74.55;25.20;;;;;;;3.26;63.94;99214.13;4666966;30;20365;-94
2022/12/30 04:07:49;;;;;;;70.30;24.48;;;;;;;3.45;64.25;99244.16;4668135;30;20074;-93
2022/12/30 04:10:16;;;;;;;70.00;25.42;;;;;;;3.45;63.81;99236.84;4656183;30;20530;-90
2022/12/30 04:12:42;;;;;;;68.88;25.00;;;;;;;3.30;64.03;99202.50;4638606;30;20149;-93
2022/12/30 04:15:09;;;;;;;60.55;23.25;;;;;;;3.60;64.17;99259.56;4622647;30;20058;-93
2022/12/30 04:17:35;;;;;;;68.07;26.38;;;;;;;3.18;64.69;99214.63;4640279;30;20145;-96
2022/12/30 04:20:01;;;;;;;70.72;24.83;;;;;;;3.28;64.13;99209.28;4622612;30;20046;-94
2022/12/30 04:22:29;;;;;;;67.80;26.50;;;;;;;3.82;64.02;99279.06;4635514;30;20082;-94
2022/12/30 04:24:55;;;;;;;81.07;29.08;;;;;;;3.48;63.57;99214.69;4635401;30;20059;-93
2022/12/30 04:27:21;;;;;;;70.75;27.63;;;;;;;3.93;63.81;99315.81;4638560;30;20144;-94
2022/12/30 04:29:47;;;;;;;81.70;30.25;;;;;;;3.90;63.86;99277.69;4672677;30;20042;-94
2022/12/30 04:32:14;;;;;;;85.40;30.10;;;;;;;3.48;63.15;99194.97;4678284;30;20094;-95
2022/12/30 04:34:42;;;;;;;86.35;30.05;;;;;;;3.56;63.23;99204.44;4719856;30;20048;-95
2022/12/30 04:37:14;;;;;;;77.35;28.52;;;;;;;3.58;63.32;99188.75;4726935;30;20143;-93
2022/12/30 04:39:43;;;;;;;74.80;27.05;;;;;;;3.53;63.38;99178.75;4744920;30;20036;-94
2022/12/30 04:45:12;;;;;;;65.28;24.77;;;;;;;3.26;64.62;99198.72;5138038;24;20062;-95
2022/12/30 04:47:43;;;;;;;70.43;24.42;;;;;;;3.17;65.27;99167.91;4767736;30;20083;-93
2022/12/30 04:50:10;;;;;;;69.20;25.30;;;;;;;3.46;64.81;99224.94;4731947;30;20046;-95
2022/12/30 04:52:37;;;;;;;73.90;24.88;;;;;;;3.40;64.82;99217.09;4758926;24;20135;-94
2022/12/30 04:55:06;;;;;;;63.37;23.97;;;;;;;3.22;64.44;99165.22;4759308;30;20051;-95
2022/12/30 04:57:40;;;;;;;66.38;24.35;;;;;;;3.48;64.65;99217.41;4745789;30;20150;-94
2022/12/30 05:00:08;;;;;;;64.78;24.65;;;;;;;2.89;65.21;99142.22;4761695;30;20054;-94
2022/12/30 05:02:36;;;;;;;63.65;24.58;;;;;;;3.08;65.25;99199.22;4778534;30;20155;-93
2022/12/30 05:05:02;;;;;;;69.03;25.10;;;;;;;3.08;65.58;99168.69;4747120;30;20115;-94
2022/12/30 05:07:33;;;;;;;63.50;24.45;;;;;;;3.26;65.03;99179.00;4732551;30;20052;-95
2022/12/30 05:10:00;;;;;;;68.00;26.58;;;;;;;3.41;65.21;99211.44;4774490;30;20052;-95
2022/12/30 05:12:39;;;;;;;69.68;24.38;;;;;;;3.52;65.07;99221.19;4762385;30;20044;-95
2022/12/30 05:15:06;;;;;;;71.25;25.67;;;;;;;3.80;65.14;99272.28;4745509;30;20062;-95
2022/12/30 05:17:32;;;;;;;62.90;23.65;;;;;;;3.63;64.86;99223.88;4731539;30;20197;-95
2022/12/30 05:19:58;;;;;;;74.05;26.52;;;;;;;3.67;64.64;99225.78;4728183;30;20052;-94
2022/12/30 05:22:32;;;;;;;62.83;25.63;;;;;;;3.76;64.51;99232.28;4747150;30;20288;-94
2022/12/30 05:27:56;;;;;;;57.75;23.23;;;;;;;3.72;64.39;99214.16;4754167;30;20048;-95
2022/12/30 05:30:23;;;;;;;63.40;25.40;;;;;;;3.59;64.78;99201.19;4772331;24;20205;-94
2022/12/30 05:33:15;;;;;;;64.53;25.33;;;;;;;3.99;64.95;99252.56;4772453;30;20131;-95
2022/12/30 05:35:48;;;;;;;62.05;25.80;;;;;;;3.63;65.17;99221.19;4744791;30;20067;-95
2022/12/30 05:38:16;;;;;;;61.78;25.08;;;;;;;3.64;65.28;99223.63;4737591;30;20083;-95
2022/12/30 05:40:42;;;;;;;60.28;24.92;;;;;;;3.67;65.29;99224.97;4753184;30;20059;-95
2022/12/30 05:43:11;;;;;;;60.67;24.70;;;;;;;3.60;64.96;99205.50;4758006;30;20506;-96
2022/12/30 05:45:38;;;;;;;59.25;23.40;;;;;;;3.65;64.92;99236.06;4773828;30;20064;-94
2022/12/30 05:48:05;;;;;;;59.28;23.98;;;;;;;3.65;65.22;99222.53;4773274;24;20071;-94
2022/12/30 05:50:37;;;;;;;53.85;22.70;;;;;;;3.45;65.37;99201.72;4775126;29;20096;-93
2022/12/30 05:53:03;;;;;;;56.45;21.75;;;;;;;3.32;65.31;99182.53;4767770;30;20055;-95
2022/12/30 05:55:29;;;;;;;63.28;23.35;;;;;;;3.69;65.42;99239.03;4773874;30;20070;-93
2022/12/30 05:57:56;;;;;;;56.13;22.52;;;;;;;3.44;65.43;99202.78;4745599;30;20145;-93
2022/12/30 06:00:22;;;;;;;61.63;23.13;;;;;;;3.73;65.46;99257.13;4745526;30;20051;-92
2022/12/30 06:02:48;;;;;;;63.65;24.13;;;;;;;3.26;65.84;99198.72;4760649;30;20057;-93
2022/12/30 06:05:14;;;;;;;58.28;22.90;;;;;;;3.16;66.51;99214.09;4789569;29;20097;-93
2022/12/30 06:07:41;;;;;;;62.53;24.77;;;;;;;3.37;66.18;99231.16;4774304;30;20065;-93
2022/12/30 06:10:07;;;;;;;66.55;21.15;;;;;;;3.23;65.98;99218.16;4746800;30;20046;-92
2022/12/30 06:12:58;;;;;;;58.85;24.13;;;;;;;3.75;66.22;99283.91;4782151;29;20047;-92
2022/12/30 06:15:25;;;;;;;55.92;24.35;;;;;;;3.03;65.79;99170.31;4786059;30;20074;-92
2022/12/30 06:18:17;;;;;;;54.25;21.83;;;;;;;3.40;65.67;99207.09;4813766;24;20102;-92
2022/12/30 06:20:44;;;;;;;58.95;23.38;;;;;;;3.42;66.22;99213.06;4810840;29;20058;-93
2022/12/30 06:23:31;;;;;;;56.60;22.38;;;;;;;3.34;65.66;99183.84;4816519;29;20050;-91
2022/12/30 06:25:59;;;;;;;54.00;22.10;;;;;;;3.69;65.73;99237.13;4751414;30;20138;-92
2022/12/30 06:28:27;;;;;;;57.90;21.23;;;;;;;3.57;65.54;99206.84;4742950;30;20475;-91
2022/12/30 06:30:54;;;;;;;49.70;20.05;;;;;;;4.03;65.55;99271.75;4752319;30;20040;-92
2022/12/30 06:33:23;;;;;;;52.22;22.55;;;;;;;3.56;65.37;99205.22;4770134;30;20059;-93
2022/12/30 06:35:49;;;;;;;51.85;22.35;;;;;;;3.34;65.46;99151.44;4758619;30;20534;-94
2022/12/30 06:38:15;;;;;;;49.87;20.90;;;;;;;3.61;65.72;99196.31;4737821;30;20055;-93
2022/12/30 06:40:57;;;;;;;49.03;21.35;;;;;;;3.61;65.82;99212.53;4756211;30;20051;-94
2022/12/30 06:44:13;;;;;;;51.35;21.15;;;;;;;3.88;66.39;99250.13;4747064;30;20056;-93
2022/12/30 06:47:05;;;;;;;47.72;20.85;;;;;;;3.99;65.72;99252.56;4742414;30;20052;-93
2022/12/30 06:49:31;;;;;;;46.22;19.63;;;;;;;3.64;65.81;99207.41;4773089;24;20041;-92
2022/12/30 06:51:57;;;;;;;44.63;19.55;;;;;;;3.77;66.25;99227.66;4779661;29;20054;-93
2022/12/30 06:54:31;;;;;;;45.83;20.02;;;;;;;3.75;65.89;99210.94;4810669;29;20111;-94
2022/12/30 06:56:59;;;;;;;43.15;19.40;;;;;;;3.68;66.29;99211.19;4783330;29;20028;-93
2022/12/30 06:59:34;;;;;;;47.17;20.02;;;;;;;3.53;65.86;99173.34;4810435;29;20075;-93
2022/12/30 07:02:27;;;;;;;44.78;19.33;;;;;;;4.10;65.69;99252.53;4809505;29;20095;-94
2022/12/30 07:04:56;;;;;;;47.75;20.35;;;;;;;4.00;65.13;99219.00;4798048;29;20065;-94
2022/12/30 07:07:49;;;;;;;43.85;18.92;;;;;;;4.18;65.37;99257.41;4784711;29;20064;-93
2022/12/30 07:10:18;;;;;;;44.10;21.55;;;;;;;3.37;65.46;99153.59;4756551;30;20056;-93
2022/12/30 07:13:25;;;;;;;46.38;21.30;;;;;;;3.41;65.83;99167.38;4761060;30;20075;-93
2022/12/30 07:15:54;;;;;;;46.20;19.42;;;;;;;3.86;65.83;99211.72;4711082;30;20052;-93
2022/12/30 07:19:15;;;;;;;46.60;20.85;;;;;;;4.09;65.51;99253.63;4723995;30;20498;-93
2022/12/30 07:22:07;;;;;;;48.67;20.75;;;;;;;4.15;65.99;99245.25;4706598;30;20044;-93
2022/12/30 07:24:33;;;;;;;49.03;20.08;;;;;;;3.47;65.63;99182.53;4723387;30;20475;-94
2022/12/30 07:26:59;;;;;;;43.97;21.23;;;;;;;3.61;65.95;99191.75;4711798;30;20060;-95
2022/12/30 07:29:25;;;;;;;49.88;19.90;;;;;;;3.77;66.18;99238.47;4728059;30;20528;-96
2022/12/30 07:31:53;;;;;;;49.92;20.77;;;;;;;3.87;66.09;99218.75;4742000;30;20592;-94
2022/12/30 07:34:19;;;;;;;44.55;19.95;;;;;;;3.89;66.34;99224.72;4741864;30;20063;-94
2022/12/30 07:36:45;;;;;;;41.95;19.27;;;;;;;3.30;66.57;99182.78;4710512;30;20456;-93
2022/12/30 07:39:11;;;;;;;41.15;18.63;;;;;;;3.78;67.01;99240.13;4712489;30;20139;-93
2022/12/30 07:41:38;;;;;;;39.90;19.42;;;;;;;3.59;66.61;99210.09;4706899;30;20071;-92
2022/12/30 07:44:11;;;;;;;39.70;19.70;;;;;;;3.92;66.55;99238.50;4738341;30;20057;-92
2022/12/30 07:47:02;;;;;;;42.17;19.17;;;;;;;4.10;66.56;99272.28;4709275;30;20084;-93
2022/12/30 07:50:00;;;;;;;40.10;19.08;;;;;;;4.27;65.95;99268.50;4802529;24;20062;-95
2022/12/30 07:56:39;;;;;;;44.67;20.25;;;;;;;4.24;65.93;99237.41;4797724;29;20062;-95
2022/12/30 07:59:06;;;;;;;40.88;19.05;;;;;;;3.85;65.57;99154.13;4801186;29;20064;-94
2022/12/30 08:01:35;;;;;;;44.20;20.67;;;;;;;4.31;65.53;99221.69;4810255;29;20043;-94
2022/12/30 08:04:27;;;;;;;48.83;20.75;;;;;;;4.52;65.45;99257.63;4799746;29;20042;-94
2022/12/30 08:06:53;;;;;;;47.05;21.20;;;;;;;3.97;65.06;99146.56;4799214;29;21758;-94
2022/12/30 08:09:23;;;;;;;42.90;19.42;;;;;;;4.27;64.93;99193.53;4844590;29;20070;-93
2022/12/30 08:11:49;;;;;;;38.25;18.30;;;;;;;4.56;65.30;99255.19;4813775;29;20532;-94
2022/12/30 08:14:19;;;;;;;43.13;20.25;;;;;;;4.27;65.34;99223.28;4801102;29;20053;-93
2022/12/30 08:16:46;;;;;;;50.90;21.70;;;;;;;4.06;65.82;99195.47;4799476;29;20054;-93
2022/12/30 08:19:38;;;;;;;43.53;20.80;;;;;;;4.58;65.54;99259.25;4830871;29;20038;-95
2022/12/30 08:22:25;;;;;;;48.47;21.48;;;;;;;3.99;66.04;99203.06;4775007;30;20052;-95
2022/12/30 08:28:47;;;;;;;49.75;19.10;;;;;;;4.24;66.20;99248.22;4727635;30;20066;-94
2022/12/30 08:31:27;;;;;;;36.10;17.15;;;;;;;3.83;67.17;99217.69;4714828;30;20049;-93
2022/12/30 08:34:23;;;;;;;34.53;17.55;;;;;;;3.93;67.88;99250.13;4724246;30;20064;-95
2022/12/30 08:36:49;;;;;;;38.85;18.40;;;;;;;3.21;68.16;99151.97;4683589;30;20053;-95
2022/12/30 08:39:18;;;;;;;37.20;18.00;;;;;;;3.23;68.15;99139.00;4696338;30;20063;-95
2022/12/30 08:45:28;;;;;;;36.58;17.02;;;;;;;3.09;68.66;99146.03;4724393;30;20033;-95
2022/12/30 08:48:07;;;;;;;37.97;18.83;;;;;;;3.08;69.11;99144.38;4699797;30;20108;-95
2022/12/30 08:50:42;;;;;;;32.65;17.35;;;;;;;3.47;69.14;99207.66;4670704;30;20060;-95
2022/12/30 08:53:10;;;;;;;32.63;17.25;;;;;;;3.53;69.65;99206.56;4721836;30;20063;-94
2022/12/30 08:55:46;;;;;;;34.40;16.33;;;;;;;3.72;69.24;99216.88;4711022;30;20073;-94
2022/12/30 09:02:00;;;;;;;40.58;18.63;;;;;;;3.63;68.32;99161.72;4747818;30;20053;-96
2022/12/30 09:04:28;;;;;;;36.08;18.08;;;;;;;3.83;67.93;99180.63;4739733;30;20051;-95
2022/12/30 09:06:54;;;;;;;38.75;17.67;;;;;;;3.93;68.06;99209.56;4798103;29;20035;-96
2022/12/30 09:09:21;;;;;;;32.77;17.43;;;;;;;3.65;67.78;99154.97;4801418;29;20043;-96
2022/12/30 09:11:47;;;;;;;31.92;16.50;;;;;;;4.08;67.97;99246.63;4817656;29;20283;-94
2022/12/30 09:14:16;;;;;;;29.80;15.65;;;;;;;3.48;68.81;99167.94;4815923;29;20054;-94
2022/12/30 09:17:06;;;;;;;34.70;17.05;;;;;;;3.63;69.22;99172.53;4811397;29;20043;-95
2022/12/30 09:19:33;;;;;;;29.05;14.57;;;;;;;3.76;68.29;99175.50;4813270;29;20485;-93
2022/12/30 09:21:59;;;;;;;30.35;15.85;;;;;;;3.92;68.20;99181.72;4801224;29;20047;-96
2022/12/30 09:24:54;;;;;;;28.75;14.55;;;;;;;4.17;68.04;99223.31;4815658;29;20135;-96
2022/12/30 09:27:20;;;;;;;31.02;15.50;;;;;;;4.05;68.15;99195.75;4812196;29;20038;-94
2022/12/30 09:29:49;;;;;;;29.30;15.23;;;;;;;3.56;68.27;99107.13;4836813;29;20062;-96
2022/12/30 09:44:53;;;;;;;34.08;17.20;;;;;;;4.10;67.85;99128.13;4821588;29;20043;-95
2022/12/30 09:51:39;;;;;;;29.10;15.55;;;;;;;4.44;67.93;99196.75;4944209;24;20062;-94
2022/12/30 09:54:39;;;;;;;33.80;16.33;;;;;;;3.70;68.55;99087.38;4811473;29;20033;-95
2022/12/30 09:57:30;;;;;;;32.58;15.57;;;;;;;4.25;68.14;99174.06;4794531;29;20054;-95
2022/12/30 10:00:02;;;;;;;30.17;15.57;;;;;;;4.04;68.26;99121.09;4795146;29;20114;-95
2022/12/30 10:03:14;;;;;;;24.45;13.35;;;;;;;4.32;69.05;99190.03;4787066;29;20051;-94
2022/12/30 10:06:16;;;;;;;28.58;14.30;;;;;;;3.79;68.58;99090.34;4791069;29;20070;-95
2022/12/30 10:09:02;;;;;;;25.15;13.73;;;;;;;4.57;67.97;99181.81;4803014;29;20046;-96
2022/12/30 10:11:44;;;;;;;26.17;13.18;;;;;;;3.85;67.63;99096.56;4802212;29;20062;-92
2022/12/30 10:18:07;;;;;;;21.35;12.30;;;;;;;4.22;69.22;99193.56;4821211;29;20137;-94
2022/12/30 10:21:14;;;;;;;28.10;13.93;;;;;;;4.17;69.34;99199.81;4802939;29;20054;-94
2022/12/30 10:27:18;;;;;;;24.95;14.00;;;;;;;3.98;68.95;99129.22;4825155;29;20071;-92
2022/12/30 10:29:44;;;;;;;30.80;14.50;;;;;;;4.22;68.94;99169.22;4821209;29;20050;-91
2022/12/30 10:32:22;;;;;;;32.97;15.85;;;;;;;4.09;68.82;99153.56;4833488;29;20110;-93
2022/12/30 10:35:20;;;;;;;30.35;15.40;;;;;;;4.30;69.44;99190.28;4822950;29;20038;-94
2022/12/30 10:38:12;;;;;;;32.05;16.25;;;;;;;4.02;69.89;99158.44;4838572;29;20056;-94
2022/12/30 10:40:56;;;;;;;31.42;14.98;;;;;;;4.17;70.15;99180.03;4782575;29;20054;-92
2022/12/30 10:44:01;;;;;;;29.42;15.30;;;;;;;3.95;69.40;99124.38;4804391;29;20093;-96
2022/12/30 10:46:47;;;;;;;27.23;14.68;;;;;;;4.48;69.16;99180.78;4796021;29;20911;-95
2022/12/30 10:49:45;;;;;;;30.08;15.38;;;;;;;3.81;69.26;99087.34;4817114;29;20110;-93
2022/12/30 10:52:17;;;;;;;27.95;14.60;;;;;;;3.89;68.81;99086.78;4822008;29;20053;-95
2022/12/30 10:54:50;;;;;;;27.83;14.70;;;;;;;3.83;69.29;99090.59;4815960;29;20053;-94
2022/12/30 10:57:33;;;;;;;32.15;15.75;;;;;;;4.19;69.37;99151.63;4804808;29;20081;-94
2022/12/30 11:00:28;;;;;;;28.42;15.30;;;;;;;3.73;69.15;99057.09;4816368;29;20107;-95
2022/12/30 11:03:03;;;;;;;31.23;14.85;;;;;;;3.93;69.23;99064.31;4817148;29;20497;-94
2022/12/30 11:05:52;;;;;;;24.17;13.75;;;;;;;3.89;69.30;99051.66;4788210;29;20062;-94
2022/12/30 11:08:40;;;;;;;23.40;13.93;;;;;;;4.56;69.56;99169.34;4801998;29;20161;-95
2022/12/30 11:11:12;;;;;;;24.02;12.98;;;;;;;4.34;69.77;99131.84;4789171;29;20073;-94
2022/12/30 11:17:32;;;;;;;22.55;13.20;;;;;;;4.59;69.72;99171.50;4798342;29;20051;-95
2022/12/30 11:20:48;;;;;;;23.08;13.73;;;;;;;4.51;69.38;99152.34;4734563;30;20268;-96
2022/12/30 11:24:01;;;;;;;;;;;;;;;;;;;;;
2022/12/30 11:26:34;;;;;;;28.58;15.63;;;;;;;4.03;69.51;99089.72;4724027;30;20179;-95
2022/12/30 11:29:37;;;;;;;28.45;16.48;;;;;;;4.06;70.12;99113.53;4709790;30;20061;-94
2022/12/30 11:32:21;;;;;;;28.40;14.27;;;;;;;4.24;70.80;99172.47;4711921;30;20057;-95
2022/12/30 11:35:25;;;;;;;28.05;15.00;;;;;;;4.18;70.31;99146.50;4707713;30;20116;-95
2022/12/30 11:38:02;;;;;;;29.60;15.32;;;;;;;4.19;70.07;99121.88;4700002;30;20048;-94
2022/12/30 11:41:47;;;;;;;32.28;16.15;;;;;;;3.84;70.04;99075.97;4729810;30;20048;-95
2022/12/30 11:44:31;;;;;;;27.92;13.73;;;;;;;3.89;70.19;99086.78;4676615;30;20062;-95
2022/12/30 11:47:43;;;;;;;25.55;14.80;;;;;;;4.32;69.95;99122.38;4678175;30;20058;-91
2022/12/30 11:50:42;;;;;;;29.65;14.48;;;;;;;4.05;69.87;99088.38;4666781;30;20062;-94
2022/12/30 11:53:17;;;;;;;26.73;13.68;;;;;;;3.65;70.26;99054.97;4663148;30;20115;-93
2022/12/30 11:55:54;;;;;;;26.27;13.25;;;;;;;3.73;71.15;99102.25;4668223;30;20046;-93
2022/12/30 11:58:27;;;;;;;26.15;13.98;;;;;;;3.43;72.02;99082.28;4744908;30;20063;-92
2022/12/30 12:01:11;;;;;;;23.42;12.68;;;;;;;3.89;72.12;99149.78;4763097;30;20090;-95
2022/12/30 12:03:49;;;;;;;24.95;13.18;;;;;;;3.87;71.73;99137.63;4738824;30;20477;-94
2022/12/30 12:06:16;;;;;;;24.80;12.40;;;;;;;3.50;71.83;99072.00;4758028;30;20073;-95
2022/12/30 12:13:32;;;;;;;27.17;11.60;;;;;;;3.51;72.00;99091.75;4787897;30;20199;-94
2022/12/30 12:18:00;;;;;;;22.35;12.55;;;;;;;3.82;72.14;99126.84;4776490;30;20115;-96
2022/12/30 12:24:16;;;;;;;19.88;11.57;;;;;;;4.03;73.05;99182.50;4834597;29;20051;-96
2022/12/30 12:27:00;;;;;;;27.27;11.52;;;;;;;3.92;73.09;99183.59;4810171;29;20055;-95
2022/12/30 12:29:45;;;;;;;19.10;10.77;;;;;;;3.05;73.78;99075.53;4795664;29;20126;-95
2022/12/30 12:32:41;;;;;;;22.60;11.07;;;;;;;3.71;74.45;99185.53;4805469;29;20120;-94
2022/12/30 12:35:54;;;;;;;23.67;12.00;;;;;;;3.72;74.41;99197.94;4804933;29;20057;-95
2022/12/30 12:39:15;;;;;;;19.90;10.50;;;;;;;3.76;74.48;99199.03;4733369;30;20045;-95
2022/12/30 12:42:33;;;;;;;23.30;11.02;;;;;;;3.24;73.78;99086.59;4743252;30;20114;-95
2022/12/30 12:49:31;;;;;;;23.15;11.20;;;;;;;3.90;73.97;99202.78;4702102;30;20057;-96
2022/12/30 12:53:00;;;;;;;20.88;10.68;;;;;;;3.64;74.65;99190.38;4691529;30;20163;-95
2022/12/30 12:57:16;;;;;;;22.17;11.88;;;;;;;3.74;75.53;99188.50;4650589;30;20060;-95
2022/12/30 13:09:12;;;;;;;29.67;12.10;;;;;;;3.76;75.29;99182.81;4640827;30;20486;-94
2022/12/30 13:11:52;;;;;;;20.95;11.50;;;;;;;3.79;74.65;99174.16;4635563;30;20058;-92
2022/12/30 13:14:43;;;;;;;21.45;11.75;;;;;;;3.76;75.01;99182.81;4635393;30;20047;-93
2022/12/30 13:17:35;;;;;;;19.05;11.05;;;;;;;3.20;74.91;99077.44;4666876;30;20049;-93
2022/12/30 13:20:21;;;;;;;23.77;11.70;;;;;;;3.32;74.52;99117.69;4643370;30;20077;-94
2022/12/30 13:22:49;;;;;;;25.52;12.95;;;;;;;3.40;75.15;99147.66;4694227;30;20061;-92
2022/12/30 13:25:33;;;;;;;29.58;12.38;;;;;;;2.87;75.41;99090.34;4690917;30;20053;-94
2022/12/30 13:28:05;;;;;;;;;;;;;;;3.62;75.95;99185.25;4692683;30;20510;-95
2022/12/30 13:30:55;;;;;;;31.25;12.30;;;;;;;2.97;75.73;99076.88;4716445;30;19933;-94
2022/12/30 13:34:25;;;;;;;23.17;12.38;;;;;;;3.08;75.07;99075.00;4735094;30;20067;-96
2022/12/30 13:48:33;;;;;;;23.58;11.90;;;;;;;3.47;74.66;99134.69;5433895;24;20093;-93
2022/12/30 14:00:41;;;;;;;22.88;11.57;;;;;;;3.93;74.34;99194.13;4647218;30;20558;-93
2022/12/30 14:33:06;;;;;;;36.00;15.38;;;;;;;3.40;73.46;99087.41;4828350;29;20043;-93
2022/12/30 14:35:33;;;;;;;28.95;14.55;;;;;;;3.37;73.76;99096.06;4801705;29;20046;-96
2022/12/30 14:38:29;;;;;;;32.17;13.77;;;;;;;4.07;73.65;99215.22;4802374;29;20047;-94
2022/12/30 14:41:32;;;;;;;26.98;14.10;;;;;;;3.48;73.99;99143.63;4793863;29;20106;-95
2022/12/30 14:45:02;;;;;;;35.70;12.95;;;;;;;3.57;74.13;99152.00;4717667;30;20054;-95
2022/12/30 14:47:52;;;;;;;24.35;12.80;;;;;;;3.26;74.41;99131.19;4719635;30;20053;-95
2022/12/30 14:51:04;;;;;;;24.80;12.40;;;;;;;3.69;74.99;99209.28;4735942;30;20068;-95
2022/12/30 14:53:45;;;;;;;25.52;13.82;;;;;;;3.52;75.01;99158.22;4736348;30;20338;-96
2022/12/30 14:56:31;;;;;;;28.17;13.68;;;;;;;3.94;74.27;99209.28;4739020;30;20041;-95
2022/12/30 15:00:00;;;;;;;29.60;15.23;;;;;;;3.81;74.00;99215.25;4713512;30;20041;-95
2022/12/30 15:03:36;;;;;;;;;;;;;;;;;;;;;
2022/12/30 15:07:26;;;;;;;28.00;13.75;;;;;;;3.88;74.57;99226.59;4689335;30;20059;-94
2022/12/30 15:11:07;;;;;;;33.63;14.75;;;;;;;3.51;74.16;99121.47;4666297;30;20055;-95
2022/12/30 15:14:38;;;;;;;35.42;18.50;;;;;;;3.51;73.99;99148.50;4648953;30;20043;-95
2022/12/30 15:17:52;;;;;;;34.83;16.45;;;;;;;4.09;74.34;99226.59;4639731;30;20059;-94
2022/12/30 15:21:05;;;;;;;55.15;19.33;;;;;;;3.59;75.62;99144.44;4612681;30;20054;-95
2022/12/30 15:25:18;;;;;;;29.17;14.60;;;;;;;4.01;75.35;99217.13;4666951;30;20117;-96
2022/12/30 16:32:35;;;;;;;44.63;18.77;;;;;;;3.59;74.95;99134.44;4906345;24;20276;-91
2022/12/30 16:35:02;;;;;;;41.40;17.27;;;;;;;4.00;74.59;99183.03;4802254;29;20038;-94
2022/12/30 16:37:31;;;;;;;;;;;;;;;4.07;74.45;99193.56;4785459;29;20144;-94
2022/12/30 16:40:04;;;;;;;38.78;16.75;;;;;;;3.53;74.50;99130.09;4799441;29;19933;-94
2022/12/30 16:42:31;;;;;;;38.72;17.15;;;;;;;3.38;74.98;99120.13;4803034;29;20050;-92
2022/12/30 16:44:59;;;;;;;39.75;17.85;;;;;;;3.53;74.83;99135.50;4801928;29;20047;-92
2022/12/30 16:47:25;;;;;;;38.83;17.10;;;;;;;3.71;74.78;99164.69;4800084;29;20508;-92
2022/12/30 16:49:52;;;;;;;35.63;15.15;;;;;;;3.06;75.24;99077.97;4803993;29;20520;-95
2022/12/30 16:52:24;;;;;;;35.67;15.48;;;;;;;3.60;75.18;99160.38;4816314;29;20067;-94
2022/12/30 16:54:50;;;;;;;38.88;16.90;;;;;;;3.25;75.83;99129.56;4791231;29;20129;-95